createdAt,value
2024-01-15T00:00:21.871Z,99231.03
2024-01-15T00:03:30.862Z,99234.13
2024-01-15T00:06:46.162Z,99227.25
2024-01-15T00:10:00.793Z,99212.16
2024-01-15T00:13:09.855Z,99182.44
2024-01-15T00:16:18.477Z,99190.22
2024-01-15T00:19:26.885Z,99188.19
2024-01-15T00:22:41.863Z,99186.44
2024-01-15T00:25:50.807Z,99182.09
2024-01-15T00:28:59.630Z,99164.72
2024-01-15T00:32:08.819Z,99164.25
2024-01-15T00:35:23.841Z,99157.72
2024-01-15T00:38:26.038Z,99154.28
2024-01-15T00:41:40.827Z,99156.34
2024-01-15T00:44:55.838Z,99142.75
2024-01-15T00:47:58.209Z,99142.25
2024-01-15T00:51:12.865Z,99162.56
2024-01-15T00:54:21.569Z,99165.44
2024-01-15T00:57:30.865Z,99160.75
2024-01-15T01:00:46.027Z,99148.16
2024-01-15T01:03:54.919Z,99146.87
2024-01-15T01:07:10.122Z,99142.44
2024-01-15T01:10:24.824Z,99139.56
2024-01-15T01:13:40.862Z,99128.56
2024-01-15T01:16:43.084Z,99128.78
2024-01-15T01:19:58.089Z,99131.91
2024-01-15T01:23:00.308Z,99122.22
2024-01-15T01:26:14.816Z,99119.00
2024-01-15T01:29:23.338Z,99102.84
2024-01-15T01:32:37.859Z,99094.41
2024-01-15T01:35:52.844Z,99101.31
2024-01-15T01:39:01.580Z,99091.84
2024-01-15T01:42:17.823Z,99091.84
2024-01-15T01:45:26.647Z,99098.28
2024-01-15T01:48:34.872Z,99088.59
2024-01-15T01:51:49.876Z,99078.53
2024-01-15T01:54:53.362Z,99066.47
2024-01-15T01:58:09.818Z,99060.88
2024-01-15T02:01:13.898Z,99062.00
2024-01-15T02:04:31.859Z,99040.50
2024-01-15T02:07:40.104Z,99053.38
2024-01-15T02:10:54.861Z,99030.38
2024-01-15T02:14:04.346Z,99042.69
2024-01-15T02:17:18.808Z,99020.22
2024-01-15T02:20:27.849Z,99007.50
2024-01-15T02:23:36.699Z,99025.56
2024-01-15T02:26:45.807Z,99042.34
2024-01-15T02:30:01.833Z,99041.22
2024-01-15T02:33:04.189Z,99039.88
2024-01-15T02:36:19.871Z,99034.88
2024-01-15T02:39:22.076Z,99017.19
2024-01-15T02:42:36.905Z,99017.66
2024-01-15T02:45:45.968Z,99012.66
2024-01-15T02:49:00.945Z,99015.66
2024-01-15T02:52:09.748Z,98996.91
2024-01-15T02:55:18.869Z,99004.78
2024-01-15T02:58:27.613Z,98999.44
2024-01-15T03:01:42.855Z,99025.34
2024-01-15T03:04:45.534Z,98986.16
2024-01-15T03:08:00.796Z,99003.75
2024-01-15T03:11:09.782Z,98969.38
2024-01-15T03:14:18.356Z,98981.47
2024-01-15T03:17:32.913Z,98975.31
2024-01-15T03:20:35.056Z,98967.94
2024-01-15T03:23:49.816Z,98970.09
2024-01-15T03:26:58.320Z,98961.12
2024-01-15T03:30:06.909Z,98963.31
2024-01-15T03:33:15.722Z,98959.00
2024-01-15T03:36:30.882Z,98962.91
2024-01-15T03:39:39.639Z,98949.69
2024-01-15T03:42:48.982Z,98963.34
2024-01-15T03:45:57.726Z,98967.78
2024-01-15T03:49:12.877Z,98987.84
2024-01-15T03:52:21.808Z,98976.16
2024-01-15T03:55:36.807Z,98975.56
2024-01-15T03:58:45.034Z,98994.94
2024-01-15T04:01:59.785Z,98988.88
2024-01-15T04:05:07.806Z,98976.88
2024-01-15T04:08:23.020Z,98964.78
2024-01-15T04:11:31.774Z,98980.19
2024-01-15T04:14:46.786Z,98961.31
2024-01-15T04:18:01.790Z,98979.78
2024-01-15T04:21:06.258Z,98950.72
2024-01-15T04:24:20.802Z,98944.69
2024-01-15T04:27:28.878Z,98937.06
2024-01-15T04:30:43.913Z,98916.03
2024-01-15T04:33:52.960Z,98922.06
2024-01-15T04:37:01.637Z,98930.38
2024-01-15T04:40:10.793Z,98931.56
2024-01-15T04:43:25.772Z,98926.66
2024-01-15T04:46:34.824Z,98925.53
2024-01-15T04:49:43.637Z,98906.75
2024-01-15T04:52:58.785Z,98915.53
2024-01-15T04:56:01.004Z,98912.22
2024-01-15T04:59:15.812Z,98924.88
2024-01-15T05:02:30.947Z,98922.91
2024-01-15T05:05:52.850Z,98935.22
2024-01-15T05:09:07.836Z,98944.69
2024-01-15T05:12:22.858Z,98928.19
2024-01-15T05:15:31.828Z,98936.16
2024-01-15T05:18:46.949Z,98938.97
2024-01-15T05:21:55.876Z,98941.97
2024-01-15T05:25:11.819Z,98954.84
2024-01-15T05:28:20.669Z,98942.53
2024-01-15T05:31:35.931Z,98941.84
2024-01-15T05:34:44.921Z,98944.69
2024-01-15T05:37:59.851Z,98952.91
2024-01-15T05:41:02.064Z,98944.38
2024-01-15T05:44:16.763Z,98950.75
2024-01-15T05:47:18.764Z,98948.25
2024-01-15T05:50:34.784Z,98958.41
2024-01-15T05:53:43.528Z,98958.50
2024-01-15T05:56:58.786Z,98957.47
2024-01-15T06:00:14.845Z,98960.47
2024-01-15T06:03:23.792Z,98950.09
2024-01-15T06:06:32.814Z,98952.34
2024-01-15T06:09:48.028Z,98947.47
2024-01-15T06:13:02.768Z,98943.13
2024-01-15T06:16:15.525Z,98942.13
2024-01-15T06:19:31.006Z,98938.56
2024-01-15T06:22:33.303Z,98939.25
2024-01-15T06:25:47.788Z,98946.16
2024-01-15T06:28:49.893Z,98937.06
2024-01-15T06:32:04.913Z,98936.72
2024-01-15T06:35:13.353Z,98944.91
2024-01-15T06:38:21.773Z,98941.25
2024-01-15T06:41:30.376Z,98936.34
2024-01-15T06:44:38.832Z,98936.19
2024-01-15T06:47:53.812Z,98952.94
2024-01-15T06:50:55.743Z,98959.75
2024-01-15T06:54:11.806Z,98960.66
2024-01-15T06:57:26.815Z,98944.38
2024-01-15T07:00:41.844Z,98957.75
2024-01-15T07:03:50.832Z,98952.75
2024-01-15T07:07:06.053Z,98958.81
2024-01-15T07:10:21.793Z,98959.91
2024-01-15T07:13:29.764Z,98966.84
2024-01-15T07:16:47.981Z,98968.75
2024-01-15T07:20:03.904Z,98977.53
2024-01-15T07:23:18.803Z,98973.72
2024-01-15T07:26:20.917Z,98977.78
2024-01-15T07:29:35.772Z,98982.19
2024-01-15T07:32:43.852Z,98984.91
2024-01-15T07:36:00.523Z,98986.00
2024-01-15T07:39:10.806Z,98991.34
2024-01-15T07:42:25.838Z,98990.97
2024-01-15T07:45:27.716Z,98986.84
2024-01-15T07:48:42.906Z,98987.47
2024-01-15T07:51:51.761Z,98994.66
2024-01-15T07:55:00.925Z,98992.25
2024-01-15T07:58:15.926Z,99004.81
2024-01-15T08:01:25.916Z,99000.38
2024-01-15T08:04:40.867Z,98992.72
2024-01-15T08:08:02.757Z,99002.63
2024-01-15T08:11:04.846Z,98985.88
2024-01-15T08:14:19.781Z,98984.28
2024-01-15T08:17:28.577Z,98995.87
2024-01-15T08:20:36.841Z,98999.97
2024-01-15T08:23:52.741Z,99008.78
2024-01-15T08:27:01.788Z,99013.22
2024-01-15T08:30:17.874Z,99006.38
2024-01-15T08:33:22.264Z,99016.78
2024-01-15T08:36:37.860Z,99021.41
2024-01-15T08:39:47.517Z,99022.03
2024-01-15T08:43:03.822Z,99030.56
2024-01-15T08:46:12.350Z,99016.91
2024-01-15T08:49:20.901Z,99010.31
2024-01-15T08:52:29.709Z,99015.97
2024-01-15T08:55:44.745Z,99022.34
2024-01-15T08:58:53.386Z,99024.53
2024-01-15T09:02:07.794Z,99023.03
2024-01-15T09:05:16.881Z,99018.84
2024-01-15T09:08:32.032Z,99027.06
2024-01-15T09:11:46.757Z,99028.91
2024-01-15T09:15:01.799Z,99024.13
2024-01-15T09:18:07.163Z,99028.88
2024-01-15T09:21:22.800Z,99025.97
2024-01-15T09:24:31.838Z,99016.41
2024-01-15T09:27:40.692Z,99010.03
2024-01-15T09:30:49.851Z,99017.37
2024-01-15T09:34:04.958Z,98989.56
2024-01-15T09:37:27.374Z,98990.56
2024-01-15T09:40:52.756Z,99001.16
2024-01-15T09:44:08.802Z,98992.38
2024-01-15T09:47:17.748Z,98988.00
2024-01-15T09:50:32.755Z,98975.59
2024-01-15T09:53:43.240Z,98965.06
2024-01-15T09:56:55.785Z,98961.09
2024-01-15T10:00:06.569Z,98948.69
2024-01-15T10:03:21.874Z,98955.50
2024-01-15T10:06:24.421Z,98949.97
2024-01-15T10:09:46.823Z,98953.25
2024-01-15T10:12:56.918Z,98948.91
2024-01-15T10:16:05.986Z,98947.09
2024-01-15T10:19:20.899Z,98943.72
2024-01-15T10:22:22.861Z,98932.41
2024-01-15T10:25:37.762Z,98895.72
2024-01-15T10:28:46.299Z,98923.88
2024-01-15T10:31:54.932Z,98927.69
2024-01-15T10:35:11.759Z,98920.00
2024-01-15T10:38:21.840Z,98909.78
2024-01-15T10:41:30.817Z,98915.59
2024-01-15T10:44:45.775Z,98903.34
2024-01-15T10:47:56.228Z,98909.59
2024-01-15T10:51:05.811Z,98910.28
2024-01-15T10:54:15.399Z,98913.44
2024-01-15T10:57:24.804Z,98906.69
2024-01-15T11:00:46.875Z,98911.44
2024-01-15T11:03:49.019Z,98903.47
2024-01-15T11:07:03.783Z,98902.28
2024-01-15T11:10:51.152Z,98893.81
2024-01-15T11:13:59.751Z,98907.34
2024-01-15T11:17:15.809Z,98902.44
2024-01-15T11:20:24.409Z,98899.22
2024-01-15T11:23:55.239Z,98905.69
2024-01-15T11:27:10.834Z,98898.31
2024-01-15T11:30:14.027Z,98895.09
2024-01-15T11:33:41.862Z,98870.22
2024-01-15T11:36:56.788Z,98878.69
2024-01-15T11:40:09.731Z,98885.63
2024-01-15T11:43:19.343Z,98872.13
2024-01-15T11:46:27.761Z,98867.16
2024-01-15T11:49:54.593Z,98866.63
2024-01-15T11:53:17.775Z,98877.03
2024-01-15T11:56:29.770Z,98879.25
2024-01-15T11:59:44.796Z,98879.94
2024-01-15T12:02:54.771Z,98855.59
2024-01-15T12:06:19.764Z,98845.53
2024-01-15T12:09:34.863Z,98854.62
2024-01-15T12:13:01.162Z,98853.62
2024-01-15T12:16:16.012Z,98852.56
2024-01-15T12:19:24.632Z,98854.16
2024-01-15T12:22:53.035Z,98842.75
2024-01-15T12:26:14.733Z,98839.84
2024-01-15T12:29:25.772Z,98830.28
2024-01-15T12:32:35.753Z,98818.63
2024-01-15T12:35:44.753Z,98806.00
2024-01-15T12:38:54.906Z,98811.22
2024-01-15T12:42:03.789Z,98812.28
2024-01-15T12:45:13.830Z,98807.31
2024-01-15T12:48:28.873Z,98810.34
2024-01-15T12:51:30.894Z,98810.84
2024-01-15T12:54:45.883Z,98804.00
2024-01-15T12:58:00.815Z,98808.78
2024-01-15T13:01:02.938Z,98814.66
2024-01-15T13:04:18.950Z,98813.06
2024-01-15T13:07:21.081Z,98807.44
2024-01-15T13:10:42.776Z,98808.78
2024-01-15T13:13:44.896Z,98802.91
2024-01-15T13:16:59.811Z,98802.91
2024-01-15T13:20:08.835Z,98808.22
2024-01-15T13:23:23.782Z,98805.06
2024-01-15T13:26:42.785Z,98811.37
2024-01-15T13:29:57.775Z,98800.53
2024-01-15T13:33:13.972Z,98805.69
2024-01-15T13:36:16.412Z,98804.09
2024-01-15T13:39:31.773Z,98812.09
2024-01-15T13:42:34.079Z,98818.75
2024-01-15T13:45:49.798Z,98821.16
2024-01-15T13:49:04.836Z,98825.44
2024-01-15T13:52:14.034Z,98820.41
2024-01-15T13:55:28.866Z,98821.19
2024-01-15T13:58:38.098Z,98817.75
2024-01-15T14:01:52.763Z,98817.03
2024-01-15T14:04:54.784Z,98813.28
2024-01-15T14:08:18.255Z,98812.78
2024-01-15T14:11:28.827Z,98812.00
2024-01-15T14:14:37.457Z,98811.75
2024-01-15T14:17:52.873Z,98807.13
2024-01-15T14:21:01.466Z,98804.50
2024-01-15T14:24:16.766Z,98803.47
2024-01-15T14:27:25.859Z,98814.56
2024-01-15T14:30:40.827Z,98820.91
2024-01-15T14:33:50.888Z,98815.09
2024-01-15T14:36:59.858Z,98820.37
2024-01-15T14:40:08.924Z,98820.13
2024-01-15T14:43:17.810Z,98814.88
2024-01-15T14:46:26.767Z,98811.16
2024-01-15T14:49:35.954Z,98822.75
2024-01-15T14:52:51.784Z,98832.81
2024-01-15T14:56:00.793Z,98829.66
2024-01-15T14:59:15.755Z,98842.37
2024-01-15T15:02:25.478Z,98831.59
2024-01-15T15:05:34.805Z,98834.25
2024-01-15T15:08:49.757Z,98829.78
2024-01-15T15:11:57.777Z,98822.09
2024-01-15T15:15:09.960Z,98818.19
2024-01-15T15:18:26.940Z,98819.78
2024-01-15T15:21:29.178Z,98813.19
2024-01-15T15:24:47.812Z,98821.94
2024-01-15T15:28:02.775Z,98823.31
2024-01-15T15:31:05.704Z,98815.09
2024-01-15T15:34:20.794Z,98812.16
2024-01-15T15:37:29.642Z,98818.25
2024-01-15T15:40:44.763Z,98811.94
2024-01-15T15:43:59.775Z,98807.69
2024-01-15T15:47:08.684Z,98820.13
2024-01-15T15:50:23.906Z,98807.69
2024-01-15T15:53:26.278Z,98822.84
2024-01-15T15:56:41.796Z,98826.03
2024-01-15T15:59:50.760Z,98827.13
2024-01-15T16:02:59.765Z,98840.88
2024-01-15T16:06:15.830Z,98849.63
2024-01-15T16:09:31.099Z,98860.47
2024-01-15T16:12:47.844Z,98860.53
2024-01-15T16:23:09.370Z,98858.91
2024-01-15T16:23:25.633Z,98848.31
2024-01-15T16:23:48.069Z,98853.34
2024-01-15T16:26:39.349Z,98863.94
2024-01-15T16:29:55.772Z,98863.16
2024-01-15T16:33:11.865Z,98868.50
2024-01-15T16:36:14.093Z,98866.37
2024-01-15T16:39:28.751Z,98870.09
2024-01-15T16:42:37.336Z,98872.19
2024-01-15T16:45:45.774Z,98883.34
2024-01-15T16:48:54.560Z,98896.81
2024-01-15T16:52:09.771Z,98895.25
2024-01-15T16:55:18.486Z,98894.47
2024-01-15T16:58:26.740Z,98909.53
2024-01-15T17:01:35.753Z,98919.88
2024-01-15T17:04:51.745Z,98927.53
2024-01-15T17:08:07.555Z,98909.81
2024-01-15T17:11:16.793Z,98921.44
2024-01-15T17:14:32.856Z,98917.50
2024-01-15T17:17:47.902Z,98926.00
2024-01-15T17:20:56.831Z,98921.75
2024-01-15T17:24:12.754Z,98923.63
2024-01-15T17:27:27.777Z,98922.56
2024-01-15T17:30:36.537Z,98926.50
2024-01-15T17:33:44.780Z,98927.84
2024-01-15T17:37:00.772Z,98926.00
2024-01-15T17:40:09.934Z,98931.84
2024-01-15T17:43:18.767Z,98926.28
2024-01-15T17:46:29.750Z,98934.75
2024-01-15T17:49:38.815Z,98908.03
2024-01-15T17:52:54.769Z,98921.00
2024-01-15T17:56:09.781Z,98909.91
2024-01-15T17:59:18.446Z,98910.41
2024-01-15T18:02:33.925Z,98916.78
2024-01-15T18:05:42.881Z,98916.78
2024-01-15T18:08:58.775Z,98921.78
2024-01-15T18:12:14.730Z,98910.97
2024-01-15T18:15:23.813Z,98908.34
2024-01-15T18:18:39.834Z,98918.37
2024-01-15T18:21:41.839Z,98936.38
2024-01-15T18:24:57.755Z,98937.19
2024-01-15T18:28:13.779Z,98923.69
2024-01-15T18:31:22.730Z,98896.16
2024-01-15T18:34:38.901Z,98929.75
2024-01-15T18:37:41.045Z,98960.97
2024-01-15T18:40:55.858Z,98968.62
2024-01-15T18:44:04.949Z,98969.94
2024-01-15T18:47:21.920Z,98974.72
2024-01-15T18:50:30.812Z,98987.69
2024-01-15T18:53:40.164Z,98986.34
2024-01-15T18:56:48.784Z,98988.19
2024-01-15T18:59:57.487Z,98985.56
2024-01-15T19:03:06.127Z,98979.75
2024-01-15T19:06:20.893Z,98984.75
2024-01-15T19:09:35.804Z,98995.59
2024-01-15T19:12:50.754Z,98996.63
2024-01-15T19:15:59.770Z,98972.84
2024-01-15T19:19:08.906Z,98965.72
2024-01-15T19:22:24.734Z,98976.28
2024-01-15T19:25:33.769Z,98992.66
2024-01-15T19:28:49.755Z,98993.47
2024-01-15T19:31:58.714Z,98994.25
2024-01-15T19:35:15.807Z,98982.88
2024-01-15T19:38:24.779Z,98982.38
2024-01-15T19:41:39.847Z,98949.06
2024-01-15T19:44:41.901Z,98948.56
2024-01-15T19:47:57.002Z,98965.44
2024-01-15T19:51:14.716Z,98972.84
2024-01-15T19:54:32.755Z,98973.38
2024-01-15T19:57:35.110Z,98971.00
2024-01-15T20:00:49.967Z,98965.72
2024-01-15T20:03:58.768Z,98970.19
2024-01-15T20:07:13.850Z,98975.50
2024-01-15T20:10:29.768Z,98986.84
2024-01-15T20:13:39.588Z,98997.41
2024-01-15T20:16:55.164Z,99009.59
2024-01-15T20:19:57.632Z,99015.63
2024-01-15T20:23:13.845Z,99035.22
2024-01-15T20:26:22.972Z,99045.50
2024-01-15T20:29:31.489Z,99047.87
2024-01-15T20:32:39.885Z,99052.66
2024-01-15T20:35:48.499Z,99031.50
2024-01-15T20:38:56.755Z,99037.28
2024-01-15T20:42:05.738Z,99032.28
2024-01-15T20:45:20.784Z,99053.94
2024-01-15T20:48:30.272Z,99068.97
2024-01-15T20:51:38.770Z,99064.25
2024-01-15T20:54:54.792Z,99069.75
2024-01-15T20:57:57.089Z,99048.91
2024-01-15T21:01:12.934Z,99029.34
2024-01-15T21:04:15.450Z,99031.47
2024-01-15T21:07:30.718Z,99033.84
2024-01-15T21:10:40.016Z,99053.91
2024-01-15T21:13:54.772Z,99061.03
2024-01-15T21:16:56.852Z,99046.75
2024-01-15T21:20:12.832Z,99066.84
2024-01-15T21:23:27.831Z,99063.37
2024-01-15T21:26:29.888Z,99081.09
2024-01-15T21:29:44.815Z,99055.75
2024-01-15T21:32:53.966Z,99087.44
2024-01-15T21:36:02.382Z,99088.25
2024-01-15T21:39:11.747Z,99093.28
2024-01-15T21:42:26.769Z,99101.44
2024-01-15T21:45:41.732Z,99088.50
2024-01-15T21:48:50.371Z,99092.47
2024-01-15T21:51:58.793Z,99091.12
2024-01-15T21:55:07.957Z,99095.38
2024-01-15T21:58:16.770Z,99105.38
2024-01-15T22:01:31.773Z,99117.28
2024-01-15T22:04:47.756Z,99132.56
2024-01-15T22:08:02.843Z,99107.50
2024-01-15T22:11:24.794Z,99129.94
2024-01-15T22:14:32.806Z,99120.41
2024-01-15T22:17:41.378Z,99143.41
2024-01-15T22:20:56.747Z,99137.59
2024-01-15T22:24:12.806Z,99142.59
2024-01-15T22:27:20.791Z,99118.81
2024-01-15T22:30:35.774Z,99098.16
2024-01-15T22:33:44.704Z,99133.84
2024-01-15T22:36:53.782Z,99149.16
2024-01-15T22:40:02.396Z,99134.88
2024-01-15T22:43:10.752Z,99143.56
2024-01-15T22:46:19.611Z,99150.69
2024-01-15T22:49:27.857Z,99167.31
2024-01-15T22:52:43.745Z,99170.53
2024-01-15T22:55:58.799Z,99157.06
2024-01-15T22:59:07.796Z,99168.16
2024-01-15T23:02:16.872Z,99157.88
2024-01-15T23:05:25.846Z,99158.94
2024-01-15T23:08:47.805Z,99164.75
2024-01-15T23:12:02.737Z,99143.91
2024-01-15T23:15:17.733Z,99146.00
2024-01-15T23:18:26.782Z,99151.75
2024-01-15T23:21:35.751Z,99158.34
2024-01-15T23:24:50.734Z,99160.41
2024-01-15T23:28:05.749Z,99170.16
2024-01-15T23:31:20.765Z,99167.50
2024-01-15T23:34:29.812Z,99167.72
2024-01-15T23:37:39.268Z,99162.69
2024-01-15T23:40:47.813Z,99160.00
2024-01-15T23:43:56.367Z,99170.56
2024-01-15T23:47:11.786Z,99159.66
2024-01-15T23:50:14.127Z,99167.88
2024-01-15T23:53:28.776Z,99149.84
2024-01-15T23:56:43.855Z,99179.50
2024-01-15T23:59:52.712Z,99187.69
